createdAt,value
2019-02-14T00:02:13.657Z,-2.10
2019-02-14T00:04:40.174Z,-2.10
2019-02-14T00:07:06.733Z,-2.10
2019-02-14T00:09:33.330Z,-1.90
2019-02-14T00:11:59.849Z,-1.80
2019-02-14T00:14:26.404Z,-1.80
2019-02-14T00:16:53.065Z,-1.70
2019-02-14T00:19:19.590Z,-1.70
2019-02-14T00:21:46.149Z,-1.60
2019-02-14T00:24:12.804Z,-1.60
2019-02-14T00:26:39.320Z,-1.70
2019-02-14T00:29:05.885Z,-1.80
2019-02-14T00:31:32.400Z,-1.90
2019-02-14T00:33:58.957Z,-1.90
2019-02-14T00:36:25.518Z,-1.90
2019-02-14T00:38:52.033Z,-1.90
2019-02-14T00:41:18.625Z,-1.90
2019-02-14T00:43:45.144Z,-1.90
2019-02-14T00:46:11.660Z,-1.90
2019-02-14T00:48:38.711Z,-2.10
2019-02-14T00:51:05.232Z,-2.00
2019-02-14T00:53:31.788Z,-2.00
2019-02-14T00:55:58.351Z,-1.90
2019-02-14T00:58:24.868Z,-1.90
2019-02-14T01:00:51.424Z,-1.80
2019-02-14T01:03:17.984Z,-1.80
2019-02-14T01:05:44.501Z,-1.80
2019-02-14T01:08:11.059Z,-1.80
2019-02-14T01:10:37.654Z,-1.80
2019-02-14T01:13:04.173Z,-1.80
2019-02-14T01:15:30.828Z,-1.80
2019-02-14T01:17:57.382Z,-1.80
2019-02-14T01:20:23.909Z,-1.80
2019-02-14T01:22:50.467Z,-1.80
2019-02-14T01:25:17.021Z,-1.90
2019-02-14T01:27:43.536Z,-1.90
2019-02-14T01:30:10.090Z,-2.00
2019-02-14T01:32:36.640Z,-2.00
2019-02-14T01:35:04.260Z,-2.00
2019-02-14T01:37:30.922Z,-2.10
2019-02-14T01:39:57.477Z,-2.10
2019-02-14T01:42:24.000Z,-2.20
2019-02-14T01:44:50.555Z,-2.30
2019-02-14T01:47:17.108Z,-2.30
2019-02-14T01:49:43.629Z,-2.30
2019-02-14T01:52:10.580Z,-2.20
2019-02-14T01:54:37.137Z,-2.20
2019-02-14T01:57:03.657Z,-2.10
2019-02-14T01:59:30.207Z,-2.10
2019-02-14T02:01:56.874Z,-2.30
2019-02-14T02:04:23.387Z,-2.30
2019-02-14T02:06:49.945Z,-2.40
2019-02-14T02:09:16.500Z,-2.40
2019-02-14T02:11:43.452Z,-2.40
2019-02-14T02:14:10.009Z,-2.50
2019-02-14T02:16:36.561Z,-2.50
2019-02-14T02:19:03.185Z,-2.40
2019-02-14T02:21:29.737Z,-2.40
2019-02-14T02:23:56.288Z,-2.30
2019-02-14T02:26:22.806Z,-2.20
2019-02-14T02:28:49.361Z,-2.30
2019-02-14T02:31:15.918Z,-2.50
2019-02-14T02:33:42.439Z,-2.40
2019-02-14T02:36:08.988Z,-2.40
2019-02-14T02:38:35.536Z,-2.40
2019-02-14T02:41:02.168Z,-2.30
2019-02-14T02:43:28.708Z,-2.30
2019-02-14T02:45:55.267Z,-2.40
2019-02-14T02:48:21.780Z,-2.50
2019-02-14T02:50:48.342Z,-2.60
2019-02-14T02:53:15.984Z,-2.60
2019-02-14T02:55:42.503Z,-2.50
2019-02-14T02:58:09.078Z,-2.50
2019-02-14T03:00:35.615Z,-2.50
2019-02-14T03:03:02.156Z,-2.40
2019-02-14T03:05:28.689Z,-2.40
2019-02-14T03:07:55.246Z,-2.40
2019-02-14T03:10:21.767Z,-2.40
2019-02-14T03:12:48.349Z,-2.40
2019-02-14T03:15:15.102Z,-2.40
2019-02-14T03:17:41.612Z,-2.40
2019-02-14T03:20:09.164Z,-2.30
2019-02-14T03:22:37.152Z,-2.30
2019-02-14T03:25:05.468Z,-2.40
2019-02-14T03:27:32.028Z,-2.40
2019-02-14T03:29:58.575Z,-2.40
2019-02-14T03:32:25.104Z,-2.40
2019-02-14T03:34:51.648Z,-2.60
2019-02-14T03:37:18.197Z,-2.50
2019-02-14T03:39:45.776Z,-2.50
2019-02-14T03:42:12.396Z,-2.50
2019-02-14T03:44:38.954Z,-2.50
2019-02-14T03:47:05.468Z,-2.50
2019-02-14T03:49:32.025Z,-2.50
2019-02-14T03:51:58.581Z,-2.50
2019-02-14T03:54:25.109Z,-2.50
2019-02-14T03:56:51.656Z,-2.50
2019-02-14T03:59:18.206Z,-2.50
2019-02-14T04:01:44.719Z,-2.60
2019-02-14T04:04:11.276Z,-2.70
2019-02-14T04:06:37.833Z,-2.70
2019-02-14T04:09:06.759Z,-2.70
2019-02-14T04:11:33.308Z,-2.70
2019-02-14T04:13:59.896Z,-2.60
2019-02-14T04:16:26.412Z,-2.70
2019-02-14T04:18:53.070Z,-2.70
2019-02-14T04:21:19.620Z,-2.80
2019-02-14T04:23:46.140Z,-2.70
2019-02-14T04:26:12.697Z,-2.70
2019-02-14T04:28:39.263Z,-2.60
2019-02-14T04:31:05.776Z,-2.60
2019-02-14T04:33:32.332Z,-2.60
2019-02-14T04:35:58.889Z,-2.60
2019-02-14T04:38:25.408Z,-2.60
2019-02-14T04:40:51.970Z,-2.70
2019-02-14T04:43:18.528Z,-2.60
2019-02-14T04:45:45.046Z,-2.50
2019-02-14T04:48:11.605Z,-2.50
2019-02-14T04:50:38.156Z,-2.50
2019-02-14T04:53:04.668Z,-2.50
2019-02-14T04:55:31.230Z,-2.50
2019-02-14T04:57:57.743Z,-2.50
2019-02-14T05:00:24.300Z,-2.60
2019-02-14T05:02:50.855Z,-2.60
2019-02-14T05:05:17.369Z,-2.60
2019-02-14T05:07:43.925Z,-2.50
2019-02-14T05:10:10.849Z,-2.50
2019-02-14T05:12:37.405Z,-2.40
2019-02-14T05:15:04.662Z,-2.50
2019-02-14T05:17:31.221Z,-2.50
2019-02-14T05:19:57.773Z,-2.50
2019-02-14T05:22:25.588Z,-2.50
2019-02-14T05:24:52.144Z,-2.50
2019-02-14T05:27:18.661Z,-2.60
2019-02-14T05:29:45.215Z,-2.70
2019-02-14T05:32:11.736Z,-2.60
2019-02-14T05:34:38.287Z,-2.40
2019-02-14T05:37:04.808Z,-2.30
2019-02-14T05:39:31.369Z,-2.30
2019-02-14T05:41:57.919Z,-2.20
2019-02-14T05:44:24.440Z,-2.20
2019-02-14T05:46:50.995Z,-2.20
2019-02-14T05:49:18.108Z,-2.10
2019-02-14T05:51:44.665Z,-2.00
2019-02-14T05:54:11.223Z,-1.90
2019-02-14T05:56:37.741Z,-1.80
2019-02-14T05:59:04.300Z,-1.80
2019-02-14T06:01:30.812Z,-1.90
2019-02-14T06:03:57.372Z,-1.90
2019-02-14T06:06:23.893Z,-1.80
2019-02-14T06:08:51.420Z,-1.90
2019-02-14T06:11:18.076Z,-1.90
2019-02-14T06:13:44.644Z,-1.90
2019-02-14T06:16:11.209Z,-2.00
2019-02-14T06:18:37.893Z,-2.00
2019-02-14T06:21:04.544Z,-2.00
2019-02-14T06:23:31.953Z,-2.00
2019-02-14T06:25:58.474Z,-2.00
2019-02-14T06:28:25.088Z,-2.00
2019-02-14T06:30:51.653Z,-2.00
2019-02-14T06:33:18.168Z,-2.00
2019-02-14T06:35:44.738Z,-1.90
2019-02-14T06:38:11.297Z,-1.90
2019-02-14T06:40:37.812Z,-1.90
2019-02-14T06:43:04.368Z,-1.90
2019-02-14T06:45:30.926Z,-1.90
2019-02-14T06:47:57.446Z,-1.90
2019-02-14T06:50:24.001Z,-1.90
2019-02-14T06:52:50.554Z,-1.80
2019-02-14T06:55:17.104Z,-1.80
2019-02-14T06:57:43.668Z,-1.80
2019-02-14T07:00:11.972Z,-1.80
2019-02-14T07:02:38.531Z,-1.80
2019-02-14T07:05:05.984Z,-1.80
2019-02-14T07:07:32.501Z,-1.70
2019-02-14T07:09:59.340Z,-1.60
2019-02-14T07:12:25.905Z,-1.50
2019-02-14T07:14:52.421Z,-1.40
2019-02-14T07:17:19.013Z,-1.20
2019-02-14T07:19:45.568Z,-1.00
2019-02-14T07:22:12.887Z,-0.60
2019-02-14T07:24:39.436Z,-0.50
2019-02-14T07:27:07.692Z,-0.40
2019-02-14T07:29:34.211Z,-0.40
2019-02-14T07:32:00.775Z,-0.20
2019-02-14T07:34:27.324Z,-0.10
2019-02-14T07:36:53.835Z,0.00
2019-02-14T07:39:20.393Z,0.00
2019-02-14T07:41:46.948Z,0.20
2019-02-14T07:44:13.473Z,0.20
2019-02-14T07:46:40.021Z,0.10
2019-02-14T07:49:06.576Z,0.00
2019-02-14T07:51:33.092Z,-0.10
2019-02-14T07:53:59.648Z,-0.20
2019-02-14T07:56:26.236Z,-0.30
2019-02-14T07:58:52.787Z,-0.40
2019-02-14T08:01:19.341Z,-0.40
2019-02-14T08:03:46.063Z,-0.30
2019-02-14T08:06:12.611Z,-0.20
2019-02-14T08:08:39.133Z,-0.20
2019-02-14T08:11:05.689Z,-0.10
2019-02-14T08:13:32.253Z,0.10
2019-02-14T08:15:58.767Z,0.20
2019-02-14T08:18:25.360Z,0.40
2019-02-14T08:20:51.876Z,0.50
2019-02-14T08:23:19.011Z,0.80
2019-02-14T08:25:45.563Z,1.10
2019-02-14T08:28:12.084Z,1.40
2019-02-14T08:30:38.647Z,1.70
2019-02-14T08:33:05.195Z,1.80
2019-02-14T08:35:31.713Z,1.80
2019-02-14T08:37:58.296Z,1.80
2019-02-14T08:40:26.639Z,1.60
2019-02-14T08:42:53.148Z,1.70
2019-02-14T08:45:19.713Z,1.90
2019-02-14T08:47:46.273Z,2.20
2019-02-14T08:50:12.790Z,2.60
2019-02-14T08:52:39.462Z,2.50
2019-02-14T08:55:06.648Z,2.50
2019-02-14T08:57:33.132Z,2.70
2019-02-14T08:59:59.685Z,2.40
2019-02-14T09:02:26.207Z,2.40
2019-02-14T09:04:52.730Z,2.60
2019-02-14T09:07:19.289Z,2.90
2019-02-14T09:09:45.842Z,3.10
2019-02-14T09:12:12.356Z,3.30
2019-02-14T09:14:38.917Z,3.50
2019-02-14T09:17:05.472Z,3.80
2019-02-14T09:19:32.029Z,3.90
2019-02-14T09:21:58.543Z,3.90
2019-02-14T09:24:25.102Z,4.10
2019-02-14T09:26:51.612Z,4.30
2019-02-14T09:29:18.165Z,4.50
2019-02-14T09:31:44.725Z,4.70
2019-02-14T09:34:11.241Z,4.70
2019-02-14T09:36:37.794Z,4.90
2019-02-14T09:39:04.320Z,4.90
2019-02-14T09:41:30.845Z,4.80
2019-02-14T09:43:57.404Z,4.70
2019-02-14T09:46:23.996Z,4.90
2019-02-14T09:48:50.513Z,5.20
2019-02-14T09:51:17.061Z,5.50
2019-02-14T09:53:45.272Z,5.50
2019-02-14T09:56:11.785Z,5.30
2019-02-14T09:58:38.343Z,5.30
2019-02-14T10:01:04.918Z,5.10
2019-02-14T10:03:31.443Z,5.00
2019-02-14T10:05:57.984Z,5.00
2019-02-14T10:08:24.548Z,5.20
2019-02-14T10:10:51.054Z,5.00
2019-02-14T10:13:17.606Z,4.90
2019-02-14T10:15:44.164Z,4.90
2019-02-14T10:18:10.717Z,5.20
2019-02-14T10:20:37.273Z,5.50
2019-02-14T10:23:04.536Z,5.70
2019-02-14T10:25:31.061Z,6.00
2019-02-14T10:27:57.616Z,6.00
2019-02-14T10:30:24.167Z,5.90
2019-02-14T10:32:50.687Z,5.80
2019-02-14T10:35:17.255Z,5.70
2019-02-14T10:37:43.752Z,5.60
2019-02-14T10:40:11.205Z,5.60
2019-02-14T10:42:37.728Z,5.70
2019-02-14T10:45:06.080Z,5.90
2019-02-14T10:47:32.610Z,6.20
2019-02-14T10:49:59.164Z,6.40
2019-02-14T10:52:26.960Z,6.60
2019-02-14T10:54:53.612Z,6.60
2019-02-14T10:57:20.185Z,6.60
2019-02-14T10:59:46.772Z,6.80
2019-02-14T11:02:13.497Z,7.00
2019-02-14T11:04:40.051Z,7.10
2019-02-14T11:07:06.600Z,7.20
2019-02-14T11:09:33.125Z,7.20
2019-02-14T11:11:59.680Z,7.20
2019-02-14T11:14:29.191Z,7.10
2019-02-14T11:16:54.593Z,7.00
2019-02-14T11:19:21.185Z,7.10
2019-02-14T11:21:47.741Z,7.10
2019-02-14T11:24:14.262Z,7.40
2019-02-14T11:26:40.816Z,7.50
2019-02-14T11:29:07.368Z,7.60
2019-02-14T11:31:34.721Z,7.70
2019-02-14T11:34:01.385Z,7.80
2019-02-14T11:36:27.912Z,8.10
2019-02-14T11:38:54.466Z,8.20
2019-02-14T11:41:20.985Z,8.40
2019-02-14T11:43:47.542Z,8.50
2019-02-14T11:46:14.520Z,8.50
2019-02-14T11:48:41.129Z,8.40
2019-02-14T11:51:07.685Z,8.20
2019-02-14T11:53:34.319Z,8.20
2019-02-14T11:56:06.187Z,8.20
2019-02-14T11:58:33.789Z,8.20
2019-02-14T12:01:00.532Z,8.40
2019-02-14T12:03:27.223Z,8.40
2019-02-14T12:05:53.872Z,8.50
2019-02-14T12:08:20.506Z,8.60
2019-02-14T12:10:47.099Z,8.60
2019-02-14T12:13:15.229Z,8.60
2019-02-14T12:15:41.973Z,8.60
2019-02-14T12:18:08.626Z,8.70
2019-02-14T12:20:35.173Z,8.50
2019-02-14T12:23:01.729Z,8.20
2019-02-14T12:25:29.084Z,7.90
2019-02-14T12:27:55.613Z,7.70
2019-02-14T12:30:22.171Z,7.70
2019-02-14T12:32:48.720Z,7.50
2019-02-14T12:35:15.236Z,7.50
2019-02-14T12:37:41.796Z,7.60
2019-02-14T12:40:12.319Z,7.70
2019-02-14T12:42:38.920Z,7.80
2019-02-14T12:45:07.978Z,8.00
2019-02-14T12:47:34.544Z,8.00
2019-02-14T12:50:01.059Z,8.10
2019-02-14T12:52:27.608Z,8.10
2019-02-14T12:54:54.128Z,8.10
2019-02-14T12:57:20.791Z,8.10
2019-02-14T12:59:47.336Z,8.10
2019-02-14T13:02:13.892Z,8.10
2019-02-14T13:04:40.472Z,7.80
2019-02-14T13:07:06.973Z,7.70
2019-02-14T13:09:33.532Z,7.70
2019-02-14T13:12:00.053Z,7.70
2019-02-14T13:14:26.609Z,8.00
2019-02-14T13:16:53.165Z,8.30
2019-02-14T13:19:19.721Z,8.50
2019-02-14T13:21:46.280Z,8.50
2019-02-14T13:24:12.797Z,8.50
2019-02-14T13:26:39.365Z,8.60
2019-02-14T13:29:05.916Z,8.80
2019-02-14T13:31:32.836Z,9.20
2019-02-14T13:33:59.389Z,9.50
2019-02-14T13:36:25.915Z,9.70
2019-02-14T13:38:52.463Z,10.10
2019-02-14T13:41:19.020Z,10.20
2019-02-14T13:43:45.534Z,10.30
2019-02-14T13:46:12.084Z,10.50
2019-02-14T13:48:38.608Z,10.50
2019-02-14T13:51:05.156Z,10.10
2019-02-14T13:53:31.672Z,9.60
2019-02-14T13:55:58.230Z,9.40
2019-02-14T13:58:24.880Z,9.40
2019-02-14T14:00:51.402Z,9.40
2019-02-14T14:03:17.961Z,9.40
2019-02-14T14:05:44.509Z,9.50
2019-02-14T14:08:11.029Z,9.70
2019-02-14T14:10:37.588Z,9.90
2019-02-14T14:13:04.150Z,9.80
2019-02-14T14:15:30.664Z,9.90
2019-02-14T14:17:57.260Z,9.90
2019-02-14T14:20:23.860Z,10.00
2019-02-14T14:22:50.384Z,9.90
2019-02-14T14:25:16.932Z,9.90
2019-02-14T14:27:43.488Z,9.70
2019-02-14T14:30:10.509Z,9.60
2019-02-14T14:32:37.073Z,9.70
2019-02-14T14:35:04.741Z,9.60
2019-02-14T14:37:31.270Z,9.60
2019-02-14T14:39:57.835Z,9.80
2019-02-14T14:42:43.893Z,10.00
2019-02-14T14:45:12.249Z,10.00
2019-02-14T14:47:38.809Z,10.00
2019-02-14T14:50:06.416Z,10.10
2019-02-14T14:52:32.994Z,10.10
2019-02-14T14:54:59.540Z,10.20
2019-02-14T14:57:26.068Z,10.20
2019-02-14T14:59:52.618Z,10.20
2019-02-14T15:02:19.172Z,9.80
2019-02-14T15:04:45.792Z,9.20
2019-02-14T15:07:12.345Z,8.70
2019-02-14T15:09:38.899Z,8.60
2019-02-14T15:12:05.419Z,8.40
2019-02-14T15:14:31.981Z,8.30
2019-02-14T15:16:58.540Z,8.20
2019-02-14T15:19:25.111Z,8.00
2019-02-14T15:21:51.717Z,7.90
2019-02-14T15:24:18.270Z,8.20
2019-02-14T15:26:44.788Z,8.40
2019-02-14T15:29:11.363Z,8.40
2019-02-14T15:31:38.028Z,8.50
2019-02-14T15:34:04.537Z,8.50
2019-02-14T15:36:31.093Z,8.60
2019-02-14T15:38:57.648Z,8.50
2019-02-14T15:41:24.172Z,8.50
2019-02-14T15:43:50.724Z,8.40
2019-02-14T15:46:17.289Z,8.30
2019-02-14T15:48:43.812Z,8.00
2019-02-14T15:51:10.372Z,7.80
2019-02-14T15:53:38.063Z,7.60
2019-02-14T15:56:05.534Z,7.40
2019-02-14T15:58:33.176Z,7.20
2019-02-14T16:00:59.757Z,7.00
2019-02-14T16:03:26.316Z,6.80
2019-02-14T16:05:52.832Z,6.60
2019-02-14T16:08:20.117Z,6.50
2019-02-14T16:10:49.152Z,6.30
2019-02-14T16:13:16.059Z,6.20
2019-02-14T16:15:42.622Z,6.10
2019-02-14T16:18:09.137Z,5.90
2019-02-14T16:20:35.750Z,5.80
2019-02-14T16:23:04.154Z,5.70
2019-02-14T16:25:30.604Z,5.60
2019-02-14T16:27:57.136Z,5.50
2019-02-14T16:30:23.685Z,5.40
2019-02-14T16:32:50.203Z,5.30
2019-02-14T16:35:16.762Z,5.20
2019-02-14T16:37:43.321Z,5.10
2019-02-14T16:40:09.842Z,5.00
2019-02-14T16:42:36.402Z,4.90
2019-02-14T16:45:03.821Z,4.90
2019-02-14T16:47:30.380Z,4.80
2019-02-14T16:49:56.896Z,4.70
2019-02-14T16:52:23.452Z,4.60
2019-02-14T16:54:49.974Z,4.50
2019-02-14T16:57:16.528Z,4.40
2019-02-14T16:59:43.088Z,4.30
2019-02-14T17:02:09.600Z,4.20
2019-02-14T17:04:36.154Z,4.10
2019-02-14T17:07:02.668Z,4.00
2019-02-14T17:09:29.188Z,3.90
2019-02-14T17:11:55.744Z,3.90
2019-02-14T17:14:22.305Z,3.90
2019-02-14T17:16:48.828Z,3.80
2019-02-14T17:19:15.382Z,3.80
2019-02-14T17:21:41.937Z,3.80
2019-02-14T17:24:08.499Z,3.70
2019-02-14T17:26:35.052Z,3.60
2019-02-14T17:29:01.572Z,3.60
2019-02-14T17:31:28.128Z,3.60
2019-02-14T17:33:54.645Z,3.50
2019-02-14T17:36:21.200Z,3.50
2019-02-14T17:38:47.761Z,3.40
2019-02-14T17:41:14.278Z,3.40
2019-02-14T17:43:40.864Z,3.30
2019-02-14T17:46:07.381Z,3.30
2019-02-14T17:48:33.940Z,3.20
2019-02-14T17:51:00.468Z,3.10
2019-02-14T17:53:27.013Z,3.10
2019-02-14T17:55:53.533Z,3.10
2019-02-14T17:58:20.148Z,3.10
2019-02-14T18:00:46.669Z,3.00
2019-02-14T18:03:13.309Z,3.00
2019-02-14T18:05:39.835Z,3.00
2019-02-14T18:08:06.384Z,2.90
2019-02-14T18:10:34.776Z,2.90
2019-02-14T18:13:01.328Z,2.90
2019-02-14T18:15:27.889Z,2.80
2019-02-14T18:17:54.420Z,2.80
2019-02-14T18:20:21.013Z,2.80
2019-02-14T18:22:47.568Z,2.70
2019-02-14T18:25:14.168Z,2.70
2019-02-14T18:27:40.693Z,2.70
2019-02-14T18:30:09.047Z,2.60
2019-02-14T18:32:35.580Z,2.60
2019-02-14T18:35:02.454Z,2.60
2019-02-14T18:37:29.037Z,2.40
2019-02-14T18:39:55.632Z,2.20
2019-02-14T18:42:22.154Z,2.30
2019-02-14T18:44:48.798Z,2.20
2019-02-14T18:47:15.356Z,2.20
2019-02-14T18:49:41.898Z,2.10
2019-02-14T18:52:10.332Z,2.10
2019-02-14T18:54:36.891Z,2.00
2019-02-14T18:57:03.408Z,1.90
2019-02-14T18:59:29.993Z,1.90
2019-02-14T19:01:56.549Z,1.90
2019-02-14T19:04:23.089Z,1.80
2019-02-14T19:06:49.747Z,1.70
2019-02-14T19:09:16.396Z,1.70
2019-02-14T19:11:42.915Z,1.70
2019-02-14T19:14:09.482Z,1.70
2019-02-14T19:16:36.104Z,1.70
2019-02-14T19:19:02.715Z,1.70
2019-02-14T19:21:29.338Z,1.60
2019-02-14T19:23:55.912Z,1.60
2019-02-14T19:26:22.433Z,1.50
2019-02-14T19:28:48.992Z,1.40
2019-02-14T19:31:15.548Z,1.20
2019-02-14T19:33:42.073Z,1.00
2019-02-14T19:36:08.633Z,1.00
2019-02-14T19:38:35.192Z,0.90
2019-02-14T19:41:01.728Z,0.80
2019-02-14T19:43:28.294Z,0.70
2019-02-14T19:45:54.961Z,0.80
2019-02-14T19:48:21.481Z,0.80
2019-02-14T19:50:48.053Z,0.80
2019-02-14T19:53:15.517Z,0.80
2019-02-14T19:55:42.061Z,0.90
2019-02-14T19:58:08.966Z,0.80
2019-02-14T20:00:35.572Z,0.70
2019-02-14T20:03:03.806Z,0.70
2019-02-14T20:05:30.384Z,0.70
2019-02-14T20:07:56.900Z,0.70
2019-02-14T20:10:23.747Z,0.70
2019-02-14T20:12:50.297Z,0.70
2019-02-14T20:15:17.815Z,0.70
2019-02-14T20:17:44.663Z,0.60
2019-02-14T20:20:11.194Z,0.60
2019-02-14T20:22:37.819Z,0.70
2019-02-14T20:25:06.164Z,0.60
2019-02-14T20:27:32.779Z,0.50
2019-02-14T20:29:59.475Z,0.50
2019-02-14T20:32:28.819Z,0.50
2019-02-14T20:34:55.452Z,0.50
2019-02-14T20:37:22.052Z,0.50
2019-02-14T20:39:48.541Z,0.50
2019-02-14T20:42:15.166Z,0.50
2019-02-14T20:44:41.723Z,0.50
2019-02-14T20:47:08.243Z,0.50
2019-02-14T20:49:34.760Z,0.50
2019-02-14T20:52:01.316Z,0.50
2019-02-14T20:54:27.828Z,0.40
2019-02-14T20:56:54.389Z,0.40
2019-02-14T20:59:20.946Z,0.20
2019-02-14T21:01:49.744Z,0.20
2019-02-14T21:04:16.334Z,0.10
2019-02-14T21:06:43.045Z,0.10
2019-02-14T21:09:09.713Z,0.10
2019-02-14T21:11:36.220Z,0.10
2019-02-14T21:14:02.779Z,0.10
2019-02-14T21:16:29.376Z,0.10
2019-02-14T21:18:55.940Z,0.10
2019-02-14T21:21:22.533Z,0.10
2019-02-14T21:23:49.410Z,0.10
2019-02-14T21:26:15.969Z,0.10
2019-02-14T21:28:42.527Z,0.20
2019-02-14T21:31:09.180Z,0.20
2019-02-14T21:33:35.780Z,0.20
2019-02-14T21:36:02.332Z,0.20
2019-02-14T21:38:29.490Z,0.10
2019-02-14T21:40:56.067Z,0.00
2019-02-14T21:43:22.624Z,0.00
2019-02-14T21:45:49.343Z,0.00
2019-02-14T21:48:15.867Z,0.00
2019-02-14T21:50:42.415Z,0.00
2019-02-14T21:53:09.623Z,-0.10
2019-02-14T21:55:36.144Z,-0.20
2019-02-14T21:58:05.057Z,-0.20
2019-02-14T22:00:31.070Z,-0.20
2019-02-14T22:02:57.602Z,-0.20
2019-02-14T22:05:26.161Z,-0.20
2019-02-14T22:07:52.580Z,-0.20
2019-02-14T22:10:20.309Z,-0.20
2019-02-14T22:12:46.860Z,-0.20
2019-02-14T22:15:15.236Z,-0.20
2019-02-14T22:17:41.730Z,-0.20
2019-02-14T22:20:08.389Z,-0.20
2019-02-14T22:22:35.659Z,-0.20
2019-02-14T22:25:02.168Z,-0.30
2019-02-14T22:27:28.739Z,-0.30
2019-02-14T22:29:55.613Z,-0.40
2019-02-14T22:32:22.166Z,-0.40
2019-02-14T22:34:48.725Z,-0.30
2019-02-14T22:37:15.711Z,-0.30
2019-02-14T22:39:42.264Z,-0.40
2019-02-14T22:42:08.817Z,-0.40
2019-02-14T22:44:35.384Z,-0.50
2019-02-14T22:47:02.042Z,-0.60
2019-02-14T22:49:28.598Z,-0.60
2019-02-14T22:51:55.377Z,-0.60
2019-02-14T22:54:21.933Z,-0.60
2019-02-14T22:56:48.496Z,-0.60
2019-02-14T22:59:15.286Z,-0.70
2019-02-14T23:01:42.844Z,-0.70
2019-02-14T23:04:09.456Z,-0.80
2019-02-14T23:06:36.031Z,-0.70
2019-02-14T23:09:04.257Z,-0.80
2019-02-14T23:11:30.897Z,-0.90
2019-02-14T23:13:57.421Z,-1.00
2019-02-14T23:16:24.068Z,-1.00
2019-02-14T23:18:50.690Z,-1.00
2019-02-14T23:21:17.252Z,-1.00
2019-02-14T23:23:43.849Z,-1.00
2019-02-14T23:26:10.404Z,-1.10
2019-02-14T23:28:36.927Z,-1.10
2019-02-14T23:31:03.477Z,-1.10
2019-02-14T23:33:30.033Z,-1.00
2019-02-14T23:35:56.557Z,-1.00
2019-02-14T23:38:23.113Z,-1.00
2019-02-14T23:40:49.669Z,-1.00
2019-02-14T23:43:16.188Z,-1.00
2019-02-14T23:45:42.742Z,-1.00
2019-02-14T23:48:09.306Z,-1.00
2019-02-14T23:50:35.827Z,-1.10
2019-02-14T23:53:02.371Z,-1.20
2019-02-14T23:55:28.928Z,-1.20
2019-02-14T23:57:55.447Z,-1.20
